7/9 a 14/9 - Fresco a templado C con eventos de inestabilidad, calor N

Avatar de Usuario
Ezequiel15
Mensajes: 11507
Registrado: Lun Ene 23, 2012 4:18 pm
Ubicación: I Casanova
Contactar:

Re: 7/9 a 14/9 - Fresco a templado C con eventos de inestabilidad, calor N

Mensaje por Ezequiel15 » Vie Sep 11, 2020 3:21 pm

Las Lomitas 40,0
Resistencia 39,0
Causa de muerte de tus padres: "Me estorbaban los dos" C.M.B.


https://infometeoba.blogspot.com.ar/

Avatar de Usuario
Diecha
Mensajes: 11510
Registrado: Jue Ago 25, 2011 9:31 pm
Ubicación: Lomas de Zamora

Re: 7/9 a 14/9 - Fresco a templado C con eventos de inestabilidad, calor N

Mensaje por Diecha » Vie Sep 11, 2020 3:31 pm

- Rosario 15 hs: SAAR 111800Z 16016KT CAVOK 19/00 Q1013
- Junín 15 hs: SAAJ 111800Z 20011G22KT 9999 SCT030 17/M01 Q1015 (ráfaga de 41 Km/h)

Imagen

Avatar de Usuario
Ernest
Mensajes: 11471
Registrado: Vie Jul 17, 2009 10:54 pm
Ubicación: Balvanera, CABA

Re: 7/9 a 14/9 - Fresco a templado C con eventos de inestabilidad, calor N

Mensaje por Ernest » Vie Sep 11, 2020 3:48 pm

15 hs
Llamativamente Corrientes supera a Resistencia (levemente)

1 LAS LOMITAS FORMOSA 40.0 ºC - 16 %
2 CORRIENTES CORRIENTES 39.3 ºC - 21 %
3 RESISTENCIA CHACO 39.0 ºC - 24 %
4 PRESIDENCIA ROQUE SAENZ PEÑA CHACO 38.9 ºC - 21 %
5 ORAN SALTA 35.5 ºC - 28 %
6 POSADAS MISIONES 35.4 ºC - 36 %
7 IGUAZU MISIONES 35.3 ºC - 40 %
8 OBERA MISIONES 34.8 ºC 49.0 ºC 69 %
9 ITUZAINGO CORRIENTES 34.0 ºC 38.4 ºC 50 %
10 TARTAGAL SALTA 33.6 ºC - 26 %

104 PERITO MORENO SANTA CRUZ 11.3 ºC - 40 %
105 RIO GALLEGOS SANTA CRUZ 11.0 ºC - 22 %
106 GOBERNADOR GREGORES SANTA CRUZ 11.0 ºC - 22 %
107 EL CALAFATE SANTA CRUZ 11.0 ºC - 29 %
108 EL BOLSON RIO NEGRO 9.9 ºC 5.7 ºC 57 %
109 RIO GRANDE B.A. TIERRA DEL FUEGO 9.5 ºC 6.7 ºC 53 %
110 ESQUEL CHUBUT 8.6 ºC 4.8 ºC 44 %
111 USHUAIA TIERRA DEL FUEGO 8.0 ºC 5.7 ºC 56 %
112 CHAPELCO NEUQUEN 7.0 ºC 3.4 ºC 61 %
113 BARILOCHE RIO NEGRO 6.5 ºC 0.5 ºC 69 %
Did you want to talk about the weather, or were you just making chitchat?

Twitter: @ErnestoMeteo

Avatar de Usuario
Ale de Castelar
Mensajes: 25955
Registrado: Sab Mar 03, 2012 12:25 pm
Ubicación: Caballito

Re: 7/9 a 14/9 - Fresco a templado C con eventos de inestabilidad, calor N

Mensaje por Ale de Castelar » Vie Sep 11, 2020 4:10 pm

Paso un mini chaparron por CABA (algunos barrios) hace un rato

Avatar de Usuario
Diecha
Mensajes: 11510
Registrado: Jue Ago 25, 2011 9:31 pm
Ubicación: Lomas de Zamora

Re: 7/9 a 14/9 - Fresco a templado C con eventos de inestabilidad, calor N

Mensaje por Diecha » Vie Sep 11, 2020 4:11 pm

- Concordia 15:12 hs: SAAC 111812Z 20009KT 8000 -TSRA FEW050CB OVC060 24/16 Q1010

Imagen
Imagen

Avatar de Usuario
Ale de Castelar
Mensajes: 25955
Registrado: Sab Mar 03, 2012 12:25 pm
Ubicación: Caballito

Re: 7/9 a 14/9 - Fresco a templado C con eventos de inestabilidad, calor N

Mensaje por Ale de Castelar » Vie Sep 11, 2020 5:19 pm

Tormentas cerca de Rosario

Avatar de Usuario
Diecha
Mensajes: 11510
Registrado: Jue Ago 25, 2011 9:31 pm
Ubicación: Lomas de Zamora

Re: 7/9 a 14/9 - Fresco a templado C con eventos de inestabilidad, calor N

Mensaje por Diecha » Vie Sep 11, 2020 5:33 pm

Rosario:
Imagen
www.instagram.com/p/CFAkL61ANUJ/?hl=es

- Rosario 17 hs: SAAR 112000Z 18017KT 9999 TS FEW040CB OVC100 18/M00 Q1015

Imagen
Imagen
Imagen

Avatar de Usuario
Diecha
Mensajes: 11510
Registrado: Jue Ago 25, 2011 9:31 pm
Ubicación: Lomas de Zamora

Re: 7/9 a 14/9 - Fresco a templado C con eventos de inestabilidad, calor N

Mensaje por Diecha » Vie Sep 11, 2020 7:10 pm

Imagen

Imagen
Spoiler
Mostrar
Imagen
Imagen
Imagen
Imagen
Imagen
Imagen
Imagen
Imagen
Imagen
Imagen
Imagen
Imagen
Imagen
Imagen
Última edición por Diecha el Vie Sep 11, 2020 7:28 pm, editado 1 vez en total.

Avatar de Usuario
diegotelesa
Mensajes: 1462
Registrado: Mié Jul 24, 2013 10:48 pm
Ubicación: Ramos Mejía

Re: 7/9 a 14/9 - Fresco a templado C con eventos de inestabilidad, calor N

Mensaje por diegotelesa » Vie Sep 11, 2020 7:13 pm

Se largó a llover acá.

Avatar de Usuario
Diecha
Mensajes: 11510
Registrado: Jue Ago 25, 2011 9:31 pm
Ubicación: Lomas de Zamora

Re: 7/9 a 14/9 - Fresco a templado C con eventos de inestabilidad, calor N

Mensaje por Diecha » Vie Sep 11, 2020 7:25 pm


Responder